Time;durP1;ratioP1;P1;durP2;ratioP2;P2;SDS_P1;SDS_P2;PMS_P1;PMS_P2;Temp;Humidity;BMP_temperature;BMP_pressure;BME280_temperature;BME280_humidity;BME280_pressure;Samples;Min_cycle;Max_cycle;Signal;HPM_P1;HPM_P2
2023/10/10 00:02:28;;;;;;;6.77;4.07;;;20.40;70.70;;;;;;5050912;28;20506;-47
2023/10/10 00:04:54;;;;;;;7.47;4.30;;;20.40;70.70;;;;;;5058595;28;20083;-52
2023/10/10 00:07:20;;;;;;;8.80;3.97;;;20.40;70.70;;;;;;5069606;28;20056;-47
2023/10/10 00:09:46;;;;;;;7.50;3.60;;;20.40;70.60;;;;;;5070030;28;20043;-52
2023/10/10 00:12:17;;;;;;;8.27;4.00;;;20.30;70.70;;;;;;5069882;28;20484;-48
2023/10/10 00:14:43;;;;;;;5.82;3.70;;;20.40;70.80;;;;;;5070485;28;20033;-46
2023/10/10 00:17:09;;;;;;;7.50;4.00;;;20.40;70.70;;;;;;5068438;28;20029;-49
2023/10/10 00:19:54;;;;;;;9.50;3.90;;;20.40;70.70;;;;;;5063877;28;20021;-46
2023/10/10 00:22:28;;;;;;;7.13;3.60;;;20.40;70.60;;;;;;5061293;28;20061;-48
2023/10/10 00:24:54;;;;;;;6.00;3.38;;;20.40;70.60;;;;;;5069137;28;20063;-51
2023/10/10 00:27:23;;;;;;;6.88;3.72;;;20.40;70.80;;;;;;5070339;28;20119;-51
2023/10/10 00:29:49;;;;;;;8.70;3.88;;;20.40;70.70;;;;;;5045430;28;20099;-48
2023/10/10 00:32:17;;;;;;;12.00;3.70;;;20.40;70.70;;;;;;5068371;28;20029;-46
2023/10/10 00:34:50;;;;;;;5.53;3.22;;;20.40;70.90;;;;;;5069351;28;20047;-44
2023/10/10 00:37:25;;;;;;;9.82;3.95;;;20.40;70.60;;;;;;5058481;28;20028;-50
2023/10/10 00:39:55;;;;;;;7.95;3.50;;;20.40;71.00;;;;;;5064814;28;20021;-50
2023/10/10 00:42:37;;;;;;;7.88;3.30;;;20.30;70.70;;;;;;5065548;28;20028;-52
2023/10/10 00:45:09;;;;;;;7.55;3.75;;;20.40;70.70;;;;;;5073120;28;20603;-52
2023/10/10 00:47:40;;;;;;;5.80;3.22;;;20.30;71.00;;;;;;5052317;28;20393;-52
2023/10/10 00:50:08;;;;;;;6.25;3.55;;;20.40;70.60;;;;;;5070785;28;20025;-53
2023/10/10 00:52:38;;;;;;;7.78;3.92;;;20.40;71.20;;;;;;5073580;28;20439;-53
2023/10/10 00:55:09;;;;;;;5.93;3.47;;;20.40;70.90;;;;;;5051338;28;20036;-50
2023/10/10 00:57:38;;;;;;;5.43;3.22;;;20.40;70.80;;;;;;5074142;28;20118;-46
2023/10/10 01:00:09;;;;;;;6.73;3.27;;;20.40;70.70;;;;;;5064733;28;20523;-52
2023/10/10 01:02:37;;;;;;;6.97;3.40;;;20.40;71.20;;;;;;5063704;28;20279;-51
2023/10/10 01:05:12;;;;;;;7.68;3.45;;;20.40;71.30;;;;;;5065816;28;20132;-46
2023/10/10 01:07:38;;;;;;;6.88;2.85;;;20.40;71.00;;;;;;5073198;28;20442;-46
2023/10/10 01:10:12;;;;;;;6.88;3.65;;;20.40;71.00;;;;;;5019468;28;20111;-49
2023/10/10 01:12:39;;;;;;;9.93;3.45;;;20.40;71.00;;;;;;5073062;28;20367;-48
2023/10/10 01:15:24;;;;;;;5.00;3.05;;;20.40;71.00;;;;;;5073778;28;20025;-49
2023/10/10 01:17:51;;;;;;;6.03;3.08;;;20.40;71.10;;;;;;5051861;28;20074;-50
2023/10/10 01:22:47;;;;;;;5.53;3.25;;;20.40;70.70;;;;;;5073307;28;20028;-46
2023/10/10 01:28:13;;;;;;;5.63;3.00;;;20.40;71.00;;;;;;5055380;28;19934;-46
2023/10/10 01:33:22;;;;;;;5.88;3.03;;;20.30;70.90;;;;;;5072514;28;20491;-48
2023/10/10 01:35:49;;;;;;;7.57;3.47;;;20.40;70.70;;;;;;5072633;28;20024;-49
2023/10/10 01:38:41;;;;;;;6.55;2.80;;;20.40;71.80;;;;;;5072527;28;20039;-45
2023/10/10 01:41:24;;;;;;;5.43;2.90;;;20.40;71.10;;;;;;5054105;28;20523;-47
2023/10/10 01:43:53;;;;;;;4.82;2.80;;;20.40;70.90;;;;;;5064358;28;20074;-50
2023/10/10 01:46:27;;;;;;;5.85;3.28;;;20.40;71.20;;;;;;5054822;28;20025;-52
2023/10/10 01:48:54;;;;;;;5.88;2.90;;;20.30;70.90;;;;;;5055343;28;20017;-48
2023/10/10 01:51:20;;;;;;;7.68;3.15;;;20.40;71.30;;;;;;5054392;28;20024;-44
2023/10/10 01:53:48;;;;;;;7.70;3.55;;;20.40;71.30;;;;;;5070786;28;20028;-48
2023/10/10 01:56:14;;;;;;;4.70;3.00;;;20.40;71.10;;;;;;5071615;28;20393;-47
2023/10/10 01:58:41;;;;;;;5.30;2.90;;;20.40;70.90;;;;;;5055055;28;20028;-45
2023/10/10 02:01:19;;;;;;;5.38;2.85;;;20.40;71.20;;;;;;5044473;28;20032;-46
2023/10/10 02:03:46;;;;;;;7.53;2.83;;;20.40;70.90;;;;;;5054393;28;20510;-44
2023/10/10 02:06:22;;;;;;;4.85;2.78;;;20.40;71.10;;;;;;5063936;28;20042;-46
2023/10/10 02:08:51;;;;;;;6.57;3.47;;;20.30;71.10;;;;;;5053123;28;20032;-47
2023/10/10 02:11:20;;;;;;;3.63;2.63;;;20.30;71.30;;;;;;5046446;28;20159;-48
2023/10/10 02:13:50;;;;;;;5.53;2.97;;;20.30;71.40;;;;;;5071501;28;20032;-45
2023/10/10 02:16:23;;;;;;;;;;;20.30;71.70;;;;;;5055347;28;20032;-48
2023/10/10 02:18:53;;;;;;;5.18;2.97;;;20.30;70.90;;;;;;5072221;28;19993;-47
2023/10/10 02:21:31;;;;;;;5.80;2.72;;;20.30;70.90;;;;;;5071689;28;20024;-46
2023/10/10 02:24:25;;;;;;;5.68;2.80;;;20.30;71.50;;;;;;5069829;28;20040;-47
2023/10/10 02:26:51;;;;;;;3.22;2.55;;;20.30;71.50;;;;;;5070972;28;20044;-47
2023/10/10 02:29:21;;;;;;;5.93;2.70;;;20.30;70.70;;;;;;5072379;28;20029;-45
2023/10/10 02:34:34;;;;;;;5.90;3.10;;;20.30;70.80;;;;;;5050475;28;20028;-48
2023/10/10 02:37:22;;;;;;;4.22;2.58;;;20.30;71.40;;;;;;5070558;28;20108;-45
2023/10/10 02:39:56;;;;;;;3.22;2.47;;;20.30;71.50;;;;;;5066229;28;20040;-48
2023/10/10 02:42:23;;;;;;;4.22;2.40;;;20.30;71.10;;;;;;5053642;28;20036;-46
2023/10/10 02:44:58;;;;;;;5.55;2.47;;;20.30;71.10;;;;;;5071755;28;20480;-48
2023/10/10 02:47:33;;;;;;;4.78;3.20;;;20.30;71.70;;;;;;5071528;28;20031;-48
2023/10/10 02:50:39;;;;;;;12.18;3.33;;;20.20;71.00;;;;;;5037633;28;20032;-47
2023/10/10 02:53:07;;;;;;;4.88;2.33;;;20.30;71.40;;;;;;5070739;28;20012;-46
2023/10/10 02:55:41;;;;;;;4.78;2.75;;;20.30;71.40;;;;;;5034426;28;20155;-51
2023/10/10 02:58:22;;;;;;;4.53;2.55;;;20.30;71.60;;;;;;5068851;28;20032;-48
2023/10/10 03:00:52;;;;;;;5.88;2.83;;;20.30;71.90;;;;;;5071219;28;20017;-47
2023/10/10 03:03:19;;;;;;;5.15;2.80;;;20.20;71.70;;;;;;5070108;28;20076;-50
2023/10/10 03:05:53;;;;;;;3.83;2.40;;;20.20;71.30;;;;;;5052634;28;20016;-53
2023/10/10 03:11:00;;;;;;;4.30;2.50;;;20.20;72.00;;;;;;5087049;28;20059;-53
2023/10/10 03:13:28;;;;;;;5.82;2.83;;;20.20;71.50;;;;;;5091077;28;20023;-55
2023/10/10 03:16:12;;;;;;;5.53;2.55;;;20.30;71.50;;;;;;5081337;28;20024;-50
2023/10/10 03:18:52;;;;;;;6.25;2.60;;;20.30;70.90;;;;;;5083077;28;20035;-52
2023/10/10 03:21:24;;;;;;;9.32;2.88;;;20.30;70.70;;;;;;5089567;28;20448;-51
2023/10/10 03:23:55;;;;;;;8.18;2.78;;;20.30;70.90;;;;;;5089295;28;20032;-53
2023/10/10 03:34:56;;;;;;;9.32;3.10;;;20.20;72.30;;;;;;5089929;28;20047;-56
2023/10/10 03:39:58;;;;;;;;;;;20.20;71.90;;;;;;5091003;28;20028;-55
2023/10/10 05:24:24;;;;;;;6.15;3.00;;;20.20;69.90;;;;;;5088967;28;20464;-49
2023/10/10 05:26:49;;;;;;;8.55;3.08;;;20.20;69.80;;;;;;5089978;28;20387;-48
2023/10/10 05:29:19;;;;;;;5.72;2.97;;;20.20;69.90;;;;;;5092173;28;20093;-50
2023/10/10 05:31:51;;;;;;;7.57;3.45;;;20.20;69.80;;;;;;5090322;28;20060;-53
2023/10/10 05:34:18;;;;;;;9.63;3.40;;;20.20;69.90;;;;;;5093288;28;20082;-53
2023/10/10 05:36:47;;;;;;;5.72;3.20;;;20.20;69.80;;;;;;5093174;28;20531;-48
2023/10/10 05:39:21;;;;;;;7.55;3.38;;;20.20;69.80;;;;;;5092839;28;20032;-48
2023/10/10 05:41:54;;;;;;;6.22;3.45;;;20.20;69.90;;;;;;5092270;28;20035;-49
2023/10/10 05:44:21;;;;;;;6.97;3.15;;;20.20;69.80;;;;;;5093051;28;20085;-48
2023/10/10 05:46:47;;;;;;;4.60;2.95;;;20.30;70.00;;;;;;5093025;28;20456;-51
2023/10/10 05:49:13;;;;;;;4.75;3.22;;;20.20;69.80;;;;;;5093315;28;20020;-52
2023/10/10 05:51:40;;;;;;;12.88;2.97;;;20.20;69.90;;;;;;5092763;28;20024;-53
2023/10/10 05:54:10;;;;;;;7.25;3.05;;;20.20;69.90;;;;;;5093271;28;20078;-49
2023/10/10 05:56:37;;;;;;;5.03;2.53;;;20.20;70.10;;;;;;5092360;28;20020;-51
2023/10/10 05:59:03;;;;;;;5.43;3.08;;;20.30;70.10;;;;;;5092654;28;20453;-48
2023/10/10 06:01:30;;;;;;;3.58;2.40;;;20.20;70.00;;;;;;5092390;28;20020;-49
2023/10/10 06:03:56;;;;;;;5.07;2.72;;;20.30;70.20;;;;;;5091324;28;20483;-48
2023/10/10 06:06:22;;;;;;;3.63;2.58;;;20.30;70.10;;;;;;5092876;28;20043;-49
2023/10/10 06:09:00;;;;;;;9.07;2.63;;;20.20;70.00;;;;;;5093225;28;20020;-51
2023/10/10 06:11:27;;;;;;;3.22;2.22;;;20.20;70.00;;;;;;5092565;28;20051;-48
2023/10/10 06:13:53;;;;;;;5.80;2.70;;;20.20;70.10;;;;;;5092459;28;20020;-50
2023/10/10 06:16:20;;;;;;;4.07;2.60;;;20.30;70.20;;;;;;5092236;28;20475;-54
2023/10/10 06:18:47;;;;;;;5.90;2.70;;;20.20;70.20;;;;;;5091950;28;20383;-56
2023/10/10 06:21:18;;;;;;;4.03;2.60;;;20.30;70.10;;;;;;5092848;28;20028;-56
2023/10/10 06:23:44;;;;;;;5.60;2.70;;;20.20;70.10;;;;;;5092552;28;20780;-56
2023/10/10 06:26:12;;;;;;;5.93;2.65;;;20.20;70.10;;;;;;5092791;28;20390;-54
2023/10/10 06:28:47;;;;;;;6.07;2.40;;;20.20;70.20;;;;;;5092841;28;20077;-54
2023/10/10 06:31:19;;;;;;;5.00;2.53;;;20.20;70.10;;;;;;5092731;28;20384;-56
2023/10/10 06:33:49;;;;;;;3.88;2.40;;;20.30;70.00;;;;;;5092700;28;20024;-51
2023/10/10 06:41:28;;;;;;;8.48;2.95;;;20.30;70.60;;;;;;5092750;28;20521;-54
2023/10/10 06:43:54;;;;;;;10.05;2.70;;;20.30;71.20;;;;;;5092273;28;20368;-53
2023/10/10 06:46:23;;;;;;;19.92;4.32;;;20.30;71.40;;;;;;5090744;28;20049;-50
2023/10/10 06:48:50;;;;;;;23.80;4.22;;;20.30;72.80;;;;;;5092533;28;20395;-53
2023/10/10 06:51:21;;;;;;;23.17;4.03;;;20.30;72.90;;;;;;5092546;28;20031;-55
2023/10/10 06:53:54;;;;;;;15.68;3.30;;;20.30;73.00;;;;;;5091040;28;20086;-48
2023/10/10 06:56:43;;;;;;;10.43;3.35;;;20.30;72.90;;;;;;5083019;28;20100;-52
2023/10/10 06:59:06;;;;;;;18.58;3.58;;;20.30;72.90;;;;;;5091079;28;20103;-55
2023/10/10 07:01:31;;;;;;;24.25;4.63;;;20.40;74.60;;;;;;5083882;28;20111;-51
2023/10/10 07:04:03;;;;;;;19.55;3.50;;;20.50;76.70;;;;;;5091975;28;20034;-55
2023/10/10 07:06:29;;;;;;;16.63;3.70;;;20.50;73.40;;;;;;5088954;28;20024;-54
2023/10/10 07:11:39;;;;;;;19.38;4.13;;;20.60;74.60;;;;;;5086634;28;20380;-53
2023/10/10 07:14:10;;;;;;;32.38;5.25;;;20.60;76.50;;;;;;5088971;28;20057;-56
2023/10/10 07:16:36;;;;;;;22.48;3.70;;;20.60;77.30;;;;;;5086115;28;20510;-51
2023/10/10 07:19:19;;;;;;;20.80;3.65;;;20.60;74.80;;;;;;5088940;28;20032;-53
2023/10/10 07:21:50;;;;;;;18.95;3.63;;;20.60;74.50;;;;;;5088817;28;20028;-54
2023/10/10 07:24:17;;;;;;;20.02;4.05;;;20.60;75.10;;;;;;5088961;28;20031;-52
2023/10/10 07:26:44;;;;;;;20.58;3.63;;;20.60;75.60;;;;;;5089058;28;20047;-51
2023/10/10 07:29:27;;;;;;;18.17;4.30;;;20.60;75.90;;;;;;5086333;28;20258;-53
2023/10/10 07:32:15;;;;;;;12.23;3.47;;;20.60;76.70;;;;;;5088628;28;20024;-52
2023/10/10 07:34:50;;;;;;;22.15;4.68;;;20.70;74.20;;;;;;5088366;28;20031;-55
2023/10/10 07:37:18;;;;;;;15.90;3.63;;;20.80;75.60;;;;;;5089329;28;20086;-54
2023/10/10 07:39:57;;;;;;;12.57;3.38;;;20.80;74.00;;;;;;5089198;28;20031;-56
2023/10/10 07:42:31;;;;;;;13.05;3.67;;;20.80;74.80;;;;;;5089803;28;20123;-55
2023/10/10 07:44:57;;;;;;;11.63;3.38;;;20.80;74.90;;;;;;5087448;28;20028;-55
2023/10/10 07:47:26;;;;;;;18.27;3.60;;;20.80;74.60;;;;;;5089041;28;20074;-56
2023/10/10 07:50:00;;;;;;;12.10;4.43;;;20.80;74.80;;;;;;5088247;28;20451;-53
2023/10/10 07:52:26;;;;;;;9.80;3.30;;;20.80;75.20;;;;;;5089299;28;20028;-54
2023/10/10 07:55:03;;;;;;;15.63;3.88;;;20.80;74.40;;;;;;5089110;28;20168;-56
2023/10/10 07:57:29;;;;;;;10.77;3.53;;;20.80;74.40;;;;;;5088970;28;20088;-56
2023/10/10 07:59:56;;;;;;;13.45;3.13;;;20.80;74.40;;;;;;5088960;28;20020;-54
2023/10/10 08:02:49;;;;;;;22.13;3.25;;;20.70;74.60;;;;;;5089401;28;20040;-52
2023/10/10 08:05:13;;;;;;;11.90;3.50;;;20.70;74.40;;;;;;5088979;28;20142;-53
2023/10/10 08:07:38;;;;;;;15.40;3.50;;;20.70;74.40;;;;;;5089089;28;20540;-55
2023/10/10 08:13:09;;;;;;;13.20;3.05;;;20.70;74.30;;;;;;5051345;28;20033;-54
2023/10/10 08:16:03;;;;;;;11.98;3.30;;;20.70;74.30;;;;;;5088759;28;20020;-55
2023/10/10 08:21:12;;;;;;;11.63;3.22;;;20.80;74.20;;;;;;5088630;28;20021;-59
2023/10/10 08:23:43;;;;;;;8.02;2.97;;;20.70;74.20;;;;;;5088472;28;20024;-54
2023/10/10 08:26:18;;;;;;;9.10;3.00;;;20.70;74.30;;;;;;5088810;28;20031;-58
2023/10/10 08:28:48;;;;;;;10.27;3.25;;;20.70;74.40;;;;;;5081939;28;20137;-53
2023/10/10 08:31:15;;;;;;;15.32;3.33;;;20.70;74.30;;;;;;5087308;28;20028;-51
2023/10/10 08:33:46;;;;;;;10.30;3.13;;;20.70;74.30;;;;;;5088415;28;20039;-55
2023/10/10 08:36:24;;;;;;;7.88;2.65;;;20.70;74.40;;;;;;5088575;28;20402;-53
2023/10/10 08:38:58;;;;;;;11.70;2.60;;;20.70;74.30;;;;;;5082696;28;20028;-55
2023/10/10 08:41:28;;;;;;;10.90;3.05;;;20.70;74.50;;;;;;5088739;28;20043;-54
2023/10/10 08:43:58;;;;;;;8.93;2.65;;;20.70;74.30;;;;;;5086797;28;20495;-55
2023/10/10 08:46:31;;;;;;;7.85;2.88;;;20.70;74.30;;;;;;5088651;28;20024;-54
2023/10/10 08:49:04;;;;;;;11.90;3.10;;;20.70;74.40;;;;;;5088778;28;20058;-54
2023/10/10 08:51:34;;;;;;;13.45;2.65;;;20.70;74.90;;;;;;5089093;28;20024;-59
2023/10/10 08:54:01;;;;;;;;;;;20.70;75.50;;;;;;5087343;28;20500;-57
2023/10/10 08:56:28;;;;;;;12.25;3.50;;;20.70;75.40;;;;;;5088803;28;19912;-56
2023/10/10 08:58:54;;;;;;;12.13;3.17;;;20.70;75.00;;;;;;5088521;28;20055;-57
2023/10/10 09:01:22;;;;;;;17.73;3.78;;;20.70;75.40;;;;;;5088729;28;20479;-57
2023/10/10 09:03:50;;;;;;;15.13;3.53;;;20.70;78.10;;;;;;5085615;28;20059;-53
2023/10/10 09:06:19;;;;;;;13.30;3.40;;;20.80;78.50;;;;;;5092311;28;20029;-56
2023/10/10 09:08:49;;;;;;;10.30;2.55;;;20.80;76.90;;;;;;5092547;28;20030;-53
2023/10/10 09:11:19;;;;;;;13.38;2.78;;;20.70;76.00;;;;;;5092228;28;20038;-55
2023/10/10 09:13:51;;;;;;;11.75;3.17;;;20.80;76.00;;;;;;5091684;28;20024;-56
2023/10/10 09:16:19;;;;;;;15.70;3.00;;;20.80;75.30;;;;;;5091861;28;20463;-55
2023/10/10 09:19:06;;;;;;;11.32;3.10;;;20.80;75.60;;;;;;5091656;28;20028;-52
2023/10/10 09:21:44;;;;;;;14.27;3.42;;;20.80;75.20;;;;;;5092142;28;20191;-56
2023/10/10 09:24:28;;;;;;;12.80;3.58;;;20.80;75.30;;;;;;5091073;28;20044;-58
2023/10/10 09:27:10;;;;;;;12.80;2.72;;;20.80;75.00;;;;;;5091988;28;20028;-57
2023/10/10 09:29:45;;;;;;;9.38;2.70;;;20.80;74.90;;;;;;5091711;28;20115;-55
2023/10/10 09:32:15;;;;;;;13.65;3.25;;;20.80;75.10;;;;;;5091178;28;20020;-52
2023/10/10 09:34:41;;;;;;;16.40;3.40;;;20.80;75.10;;;;;;5091617;28;20043;-51
2023/10/10 09:37:13;;;;;;;11.77;3.50;;;20.80;75.20;;;;;;5091630;28;20028;-53
2023/10/10 09:39:42;;;;;;;12.25;4.30;;;20.80;75.10;;;;;;5091517;28;20055;-55
2023/10/10 09:42:44;;;;;;;16.45;3.78;;;20.80;74.60;;;;;;5091620;28;20047;-53
2023/10/10 09:45:18;;;;;;;18.88;3.72;;;20.80;74.70;;;;;;5091396;28;20096;-57
2023/10/10 09:48:05;;;;;;;14.00;3.60;;;20.70;75.40;;;;;;5091418;28;20501;-52
2023/10/10 09:51:16;;;;;;;12.35;3.17;;;20.70;75.30;;;;;;5091063;28;20020;-52
2023/10/10 09:53:20;;;;;;;12.48;3.08;;;20.80;75.60;;;;;;5085270;28;20134;-54
2023/10/10 09:55:47;;;;;;;16.40;3.08;;;20.90;75.90;;;;;;5091495;28;20022;-55
2023/10/10 10:06:27;;;;;;;10.82;3.88;;;21.50;73.60;;;;;;5091254;28;20032;-57
2023/10/10 10:09:08;;;;;;;17.30;3.85;;;21.40;73.40;;;;;;5090902;28;20475;-56
2023/10/10 10:12:19;;;;;;;11.15;3.40;;;21.20;73.20;;;;;;5091479;28;20336;-58
2023/10/10 10:15:18;;;;;;;13.38;3.67;;;21.10;73.60;;;;;;5063229;28;20040;-59
2023/10/10 10:18:13;;;;;;;12.02;3.38;;;21.00;74.40;;;;;;5090443;28;20097;-54
2023/10/10 10:21:52;;;;;;;9.63;3.50;;;20.90;73.30;;;;;;5090547;28;20034;-53
2023/10/10 10:23:45;;;;;;;7.15;2.90;;;20.90;73.20;;;;;;5081006;28;20054;-57
2023/10/10 10:26:33;;;;;;;12.50;3.22;;;20.90;73.50;;;;;;5090378;28;20328;-56
2023/10/10 10:29:14;;;;;;;8.30;3.03;;;20.90;73.50;;;;;;5090747;28;20058;-58
2023/10/10 10:31:48;;;;;;;9.63;3.00;;;20.90;73.40;;;;;;5090588;28;20028;-55
2023/10/10 10:34:35;;;;;;;9.43;3.20;;;20.90;74.30;;;;;;5090319;28;20024;-56
2023/10/10 10:37:19;;;;;;;10.55;2.90;;;20.90;73.80;;;;;;5090436;28;20496;-54
2023/10/10 10:40:42;;;;;;;8.10;3.08;;;20.90;73.70;;;;;;5083075;28;20103;-56
2023/10/10 10:42:34;;;;;;;6.45;2.85;;;20.90;73.50;;;;;;5086009;28;20040;-56
2023/10/10 10:45:24;;;;;;;11.85;3.13;;;20.90;73.50;;;;;;5089893;28;20165;-56
2023/10/10 10:47:59;;;;;;;7.45;2.80;;;20.90;73.50;;;;;;5088485;28;20020;-53
2023/10/10 10:50:28;;;;;;;11.45;3.10;;;20.90;73.40;;;;;;5088060;28;20054;-55
2023/10/10 10:53:08;;;;;;;7.13;2.67;;;20.90;73.40;;;;;;5088032;28;20024;-53
2023/10/10 10:55:41;;;;;;;14.60;3.20;;;20.90;73.70;;;;;;5087911;28;20024;-48
2023/10/10 10:58:20;;;;;;;10.50;3.22;;;20.80;73.70;;;;;;5088063;28;20031;-53
2023/10/10 11:03:32;;;;;;;13.20;4.40;;;20.70;72.80;;;;;;5087632;28;20138;-54
2023/10/10 11:06:14;;;;;;;12.40;3.67;;;20.70;73.00;;;;;;5087781;28;20497;-53
2023/10/10 11:11:36;;;;;;;6.38;2.97;;;20.70;72.70;;;;;;5089599;28;20109;-51
2023/10/10 11:14:10;;;;;;;7.93;3.13;;;20.70;72.50;;;;;;5089825;28;20038;-55
2023/10/10 11:16:46;;;;;;;13.23;3.75;;;20.80;72.50;;;;;;5089899;28;20032;-57
2023/10/10 11:21:56;;;;;;;13.40;3.95;;;20.70;72.80;;;;;;5087477;28;20103;-53
2023/10/10 11:24:24;;;;;;;16.73;4.60;;;20.80;72.90;;;;;;5087052;28;20020;-55
2023/10/10 11:27:07;;;;;;;12.10;4.15;;;20.80;73.00;;;;;;5086792;28;20066;-58
2023/10/10 11:29:34;;;;;;;14.50;4.50;;;20.80;73.00;;;;;;5087419;28;20388;-55
2023/10/10 11:32:08;;;;;;;16.42;4.40;;;20.80;72.90;;;;;;5088944;28;20027;-49
2023/10/10 11:34:46;;;;;;;20.77;5.32;;;20.80;73.00;;;;;;5088824;28;20432;-51
2023/10/10 11:37:20;;;;;;;25.85;5.88;;;20.80;73.20;;;;;;5088993;28;20032;-51
2023/10/10 11:40:19;;;;;;;22.17;5.68;;;20.80;73.20;;;;;;5089248;28;20038;-56
2023/10/10 11:42:38;;;;;;;19.38;5.18;;;20.80;73.80;;;;;;5089479;28;20039;-51
2023/10/10 11:45:06;;;;;;;17.67;5.30;;;20.80;73.20;;;;;;5088839;28;20028;-51
2023/10/10 11:47:42;;;;;;;15.75;4.68;;;20.80;73.00;;;;;;5088888;28;20028;-50
2023/10/10 11:50:11;;;;;;;18.33;5.22;;;20.80;73.00;;;;;;5089304;28;20085;-52
2023/10/10 11:52:56;;;;;;;28.90;5.65;;;20.80;72.80;;;;;;5089229;28;20032;-53
2023/10/10 11:55:22;;;;;;;20.83;4.97;;;20.80;73.00;;;;;;5089197;28;20024;-52
2023/10/10 11:57:49;;;;;;;23.73;5.43;;;20.80;73.00;;;;;;5089440;28;20110;-58
2023/10/10 12:00:22;;;;;;;29.98;6.00;;;20.90;72.90;;;;;;5088917;28;20032;-50
2023/10/10 12:02:51;;;;;;;28.85;5.85;;;20.80;72.90;;;;;;5088851;28;20035;-57
2023/10/10 12:07:58;;;;;;;26.85;5.78;;;20.80;72.90;;;;;;5089210;28;20020;-53
2023/10/10 12:10:40;;;;;;;24.38;5.40;;;20.90;74.60;;;;;;5088714;28;20417;-57
2023/10/10 12:13:09;;;;;;;24.13;5.32;;;20.90;74.20;;;;;;5088875;28;20031;-55
2023/10/10 12:15:40;;;;;;;27.27;6.43;;;20.80;73.70;;;;;;5088862;28;20035;-54
2023/10/10 12:18:09;;;;;;;21.33;5.40;;;20.90;74.00;;;;;;5089123;28;20479;-53
2023/10/10 12:20:37;;;;;;;22.25;5.25;;;20.90;73.80;;;;;;5089064;28;20016;-50
2023/10/10 12:23:03;;;;;;;21.00;4.65;;;20.90;73.80;;;;;;5088759;28;20437;-49
2023/10/10 12:25:29;;;;;;;23.30;4.85;;;20.90;74.00;;;;;;5089012;28;20032;-50
2023/10/10 12:28:00;;;;;;;18.80;4.97;;;20.90;74.20;;;;;;5087484;28;20024;-52
2023/10/10 12:30:27;;;;;;;19.65;5.53;;;20.80;74.00;;;;;;5088742;28;20443;-53
2023/10/10 12:32:52;;;;;;;21.00;4.47;;;20.80;74.10;;;;;;5088267;28;20049;-51
2023/10/10 12:35:23;;;;;;;25.83;5.40;;;20.90;73.90;;;;;;5089236;28;20032;-51
2023/10/10 12:37:49;;;;;;;19.92;5.38;;;20.90;73.70;;;;;;5092294;28;20034;-50
2023/10/10 12:40:15;;;;;;;19.45;5.55;;;20.90;73.20;;;;;;5091398;28;20024;-48
2023/10/10 12:42:41;;;;;;;22.23;5.50;;;20.90;73.20;;;;;;5092709;28;20024;-55
2023/10/10 12:45:07;;;;;;;28.90;5.65;;;21.00;73.80;;;;;;5092783;28;20028;-53
2023/10/10 12:47:33;;;;;;;16.30;5.05;;;21.00;74.00;;;;;;5091154;28;20032;-53
2023/10/10 12:50:13;;;;;;;19.55;4.97;;;21.10;74.60;;;;;;5092397;28;20388;-53
2023/10/10 12:52:45;;;;;;;;;;;21.10;74.60;;;;;;5092646;28;20082;-57
2023/10/10 12:55:11;;;;;;;23.70;6.28;;;21.20;74.50;;;;;;5092386;28;19908;-50
2023/10/10 12:57:38;;;;;;;26.40;6.78;;;21.20;75.30;;;;;;5092003;28;20550;-54
2023/10/10 13:00:24;;;;;;;33.50;6.70;;;21.30;79.20;;;;;;5092270;28;20058;-48
2023/10/10 13:02:50;;;;;;;22.85;5.97;;;21.30;78.60;;;;;;5092131;28;20059;-55
2023/10/10 13:05:26;;;;;;;20.17;5.28;;;21.30;78.40;;;;;;5092455;28;20024;-52
2023/10/10 13:07:55;;;;;;;23.45;5.97;;;21.20;77.90;;;;;;5091718;28;20034;-50
2023/10/10 13:10:26;;;;;;;19.58;5.30;;;21.30;77.50;;;;;;5092382;28;20085;-54
2023/10/10 13:12:53;;;;;;;24.92;4.93;;;21.30;77.20;;;;;;5091679;28;20062;-52
2023/10/10 13:15:27;;;;;;;23.85;4.72;;;21.20;76.40;;;;;;5092371;28;20035;-52
2023/10/10 13:17:53;;;;;;;19.30;4.45;;;21.20;77.40;;;;;;5091897;28;20028;-58
2023/10/10 13:20:21;;;;;;;18.52;5.28;;;21.20;74.20;;;;;;5091847;28;20028;-54
2023/10/10 13:22:50;;;;;;;19.38;5.05;;;21.20;77.20;;;;;;5091566;28;20032;-55
2023/10/10 13:25:18;;;;;;;18.50;5.18;;;21.20;77.10;;;;;;5092394;28;20028;-52
2023/10/10 13:27:46;;;;;;;18.98;5.30;;;21.20;76.00;;;;;;5091947;28;20390;-56
2023/10/10 13:30:13;;;;;;;20.58;5.30;;;21.20;76.90;;;;;;5091749;28;20028;-56
2023/10/10 13:32:41;;;;;;;25.02;5.05;;;21.20;76.60;;;;;;5090432;28;20391;-56
2023/10/10 13:35:08;;;;;;;20.25;4.82;;;21.20;76.40;;;;;;5091286;28;20027;-57
2023/10/10 13:37:35;;;;;;;17.63;5.10;;;21.20;76.30;;;;;;5091445;28;20437;-56
2023/10/10 13:40:01;;;;;;;15.45;4.50;;;21.10;76.20;;;;;;5090405;28;20024;-57
2023/10/10 13:42:27;;;;;;;20.25;4.93;;;21.20;76.20;;;;;;5091353;28;20035;-53
2023/10/10 13:45:09;;;;;;;28.20;5.30;;;21.20;76.20;;;;;;5091517;28;20028;-54
2023/10/10 13:47:36;;;;;;;21.08;5.65;;;21.20;76.10;;;;;;5090892;28;20081;-50
2023/10/10 13:52:46;;;;;;;18.13;5.20;;;21.20;75.80;;;;;;5091084;28;20048;-51
2023/10/10 13:55:12;;;;;;;19.77;6.00;;;21.20;75.60;;;;;;5091493;28;20060;-51
2023/10/10 13:57:38;;;;;;;21.60;5.75;;;21.20;75.70;;;;;;5091167;28;20040;-51
2023/10/10 14:00:19;;;;;;;17.40;5.65;;;21.30;75.60;;;;;;5091276;28;20077;-52
2023/10/10 14:02:45;;;;;;;21.00;6.28;;;21.20;75.40;;;;;;5090698;28;20509;-53
2023/10/10 14:05:15;;;;;;;19.27;5.85;;;21.30;75.50;;;;;;5090856;28;20110;-54
2023/10/10 14:07:46;;;;;;;15.10;5.40;;;21.30;75.30;;;;;;5090850;28;20077;-50
2023/10/10 14:10:11;;;;;;;20.25;5.80;;;21.30;75.30;;;;;;5090065;28;20039;-54
2023/10/10 14:12:44;;;;;;;24.35;6.07;;;21.30;75.30;;;;;;5090209;28;20028;-54
2023/10/10 14:15:11;;;;;;;18.50;5.75;;;21.30;75.00;;;;;;5096142;28;20616;-56
2023/10/10 14:17:37;;;;;;;16.73;5.10;;;21.30;75.00;;;;;;5090695;28;20024;-52
2023/10/10 14:20:19;;;;;;;19.85;5.82;;;21.30;75.00;;;;;;5095834;28;20032;-53
2023/10/10 14:22:49;;;;;;;21.60;6.03;;;21.30;75.20;;;;;;5090818;28;20028;-48
2023/10/10 14:25:18;;;;;;;23.90;6.30;;;21.30;75.10;;;;;;5096084;28;20020;-53
2023/10/10 14:27:44;;;;;;;17.30;5.57;;;21.30;76.00;;;;;;5090618;28;20012;-57
2023/10/10 14:30:20;;;;;;;20.95;6.03;;;21.30;75.60;;;;;;5089613;28;20035;-58
2023/10/10 14:32:55;;;;;;;16.85;5.15;;;21.30;75.40;;;;;;5090321;28;20103;-50
2023/10/10 14:35:23;;;;;;;16.38;4.80;;;21.30;75.00;;;;;;5090677;28;20032;-48
2023/10/10 14:37:57;;;;;;;18.73;5.82;;;21.30;74.90;;;;;;5090429;28;20110;-53
2023/10/10 14:40:24;;;;;;;18.38;5.78;;;21.30;75.20;;;;;;5089221;28;20032;-51
2023/10/10 14:42:53;;;;;;;18.77;6.05;;;21.30;75.00;;;;;;5089299;28;20024;-50
2023/10/10 14:45:28;;;;;;;28.70;7.97;;;21.30;74.90;;;;;;5088091;28;20373;-49
2023/10/10 14:47:55;;;;;;;31.05;8.38;;;21.30;75.10;;;;;;5089441;28;20035;-52
2023/10/10 14:50:24;;;;;;;29.77;7.13;;;21.30;74.80;;;;;;5090020;28;20028;-49
2023/10/10 14:52:51;;;;;;;27.67;7.60;;;21.30;75.10;;;;;;5089600;28;20429;-51
2023/10/10 14:55:27;;;;;;;26.60;7.97;;;21.30;75.00;;;;;;5090511;28;20039;-50
2023/10/10 14:57:55;;;;;;;22.45;5.93;;;21.30;75.00;;;;;;5090219;28;20032;-47
2023/10/10 15:00:29;;;;;;;30.83;6.75;;;21.30;74.90;;;;;;5090209;28;20032;-49
2023/10/10 15:02:56;;;;;;;28.90;6.85;;;21.30;74.80;;;;;;5089951;28;20070;-47
2023/10/10 15:05:26;;;;;;;23.77;6.80;;;21.30;74.50;;;;;;5089687;28;20161;-49
2023/10/10 15:07:55;;;;;;;27.40;6.93;;;21.30;74.90;;;;;;5090125;28;20036;-48
2023/10/10 15:10:25;;;;;;;54.90;8.23;;;21.30;74.70;;;;;;5089637;28;20035;-57
2023/10/10 15:12:53;;;;;;;32.63;8.43;;;21.30;75.30;;;;;;5088901;28;20020;-49
2023/10/10 15:15:19;;;;;;;44.58;10.00;;;21.30;74.80;;;;;;5089602;28;20032;-57
2023/10/10 15:17:45;;;;;;;41.33;10.00;;;21.30;75.00;;;;;;5089999;28;20498;-53
2023/10/10 15:20:14;;;;;;;31.83;7.93;;;21.30;75.10;;;;;;5089557;28;20035;-55
2023/10/10 15:22:41;;;;;;;32.60;7.35;;;21.20;74.70;;;;;;5089017;28;20028;-51
2023/10/10 15:25:12;;;;;;;30.98;8.13;;;21.20;74.30;;;;;;5091771;28;20035;-46
2023/10/10 15:27:41;;;;;;;33.53;8.23;;;21.20;74.80;;;;;;5089467;28;20049;-48
2023/10/10 15:30:10;;;;;;;30.23;7.90;;;21.30;74.70;;;;;;5091063;28;20020;-48
2023/10/10 15:32:56;;;;;;;35.22;9.65;;;21.30;74.70;;;;;;5088975;28;20031;-52
2023/10/10 15:35:23;;;;;;;28.98;8.68;;;21.30;74.90;;;;;;5090792;28;20040;-49
2023/10/10 15:37:49;;;;;;;33.90;8.02;;;21.30;75.00;;;;;;5088107;28;20027;-53
2023/10/10 15:40:21;;;;;;;28.48;8.20;;;21.30;74.60;;;;;;5090888;28;20074;-51
2023/10/10 15:42:58;;;;;;;31.75;8.25;;;21.20;75.20;;;;;;5089408;28;20024;-46
2023/10/10 15:45:24;;;;;;;27.58;7.82;;;21.20;75.30;;;;;;5090367;28;20039;-47
2023/10/10 15:47:54;;;;;;;26.63;8.35;;;21.20;75.20;;;;;;5089357;28;20095;-47